sensor_id;sensor_type;location;lat;lon;timestamp;pressure;altitude;pressure_sealevel;temperature;humidity
63819;BME280;49970;54.976;73.248;2023-04-04T00:01:57;101889.72;;;0.53;73.95
63819;BME280;49970;54.976;73.248;2023-04-04T00:04:35;101888.00;;;0.48;74.74
63819;BME280;49970;54.976;73.248;2023-04-04T00:07:01;101890.63;;;0.48;74.43
63819;BME280;49970;54.976;73.248;2023-04-04T00:09:27;101901.09;;;0.42;74.30
63819;BME280;49970;54.976;73.248;2023-04-04T00:11:54;101900.25;;;0.28;75.17
63819;BME280;49970;54.976;73.248;2023-04-04T00:14:20;101908.09;;;0.19;75.68
63819;BME280;49970;54.976;73.248;2023-04-04T00:16:47;101907.25;;;0.11;75.92
63819;BME280;49970;54.976;73.248;2023-04-04T00:19:17;101911.59;;;0.04;75.33
63819;BME280;49970;54.976;73.248;2023-04-04T00:21:53;101910.75;;;-0.03;75.38
63819;BME280;49970;54.976;73.248;2023-04-04T00:24:24;101916.84;;;-0.07;75.79
63819;BME280;49970;54.976;73.248;2023-04-04T00:26:51;101910.75;;;-0.03;75.92
63819;BME280;49970;54.976;73.248;2023-04-04T00:29:17;101918.53;;;0.04;75.35
63819;BME280;49970;54.976;73.248;2023-04-04T00:31:43;101920.31;;;0.05;75.74
63819;BME280;49970;54.976;73.248;2023-04-04T00:34:10;101921.16;;;0.02;75.85
63819;BME280;49970;54.976;73.248;2023-04-04T00:36:37;101920.28;;;-0.05;75.91
63819;BME280;49970;54.976;73.248;2023-04-04T00:39:03;101923.78;;;-0.13;76.52
63819;BME280;49970;54.976;73.248;2023-04-04T00:41:29;101908.16;;;-0.21;76.58
63819;BME280;49970;54.976;73.248;2023-04-04T00:43:55;101920.34;;;-0.20;76.95
63819;BME280;49970;54.976;73.248;2023-04-04T00:46:22;101906.44;;;-0.27;76.64
63819;BME280;49970;54.976;73.248;2023-04-04T00:48:50;101918.59;;;-0.16;77.24
63819;BME280;49970;54.976;73.248;2023-04-04T00:51:17;101916.84;;;-0.07;77.09
63819;BME280;49970;54.976;73.248;2023-04-04T00:53:46;101922.88;;;0.06;76.60
63819;BME280;49970;54.976;73.248;2023-04-04T00:56:23;101919.38;;;0.16;75.55
63819;BME280;49970;54.976;73.248;2023-04-04T00:58:50;101927.19;;;0.27;75.20
63819;BME280;49970;54.976;73.248;2023-04-04T01:01:17;101927.16;;;0.36;74.97
63819;BME280;49970;54.976;73.248;2023-04-04T01:03:43;101916.72;;;0.41;74.65
63819;BME280;49970;54.976;73.248;2023-04-04T01:06:10;101921.06;;;0.43;75.00
63819;BME280;49970;54.976;73.248;2023-04-04T01:08:43;101925.38;;;0.47;74.61
63819;BME280;49970;54.976;73.248;2023-04-04T01:11:11;101921.00;;;0.53;74.47
63819;BME280;49970;54.976;73.248;2023-04-04T01:13:38;101911.44;;;0.58;74.34
63819;BME280;49970;54.976;73.248;2023-04-04T01:16:06;101918.38;;;0.63;74.01
63819;BME280;49970;54.976;73.248;2023-04-04T01:18:33;101910.53;;;0.68;73.90
63819;BME280;49970;54.976;73.248;2023-04-04T01:21:05;101908.78;;;0.71;74.19
63819;BME280;49970;54.976;73.248;2023-04-04T01:24:04;101922.66;;;0.75;73.91
63819;BME280;49970;54.976;73.248;2023-04-04T01:26:42;101916.56;;;0.81;73.77
63819;BME280;49970;54.976;73.248;2023-04-04T01:29:09;101917.38;;;0.86;73.47
63819;BME280;49970;54.976;73.248;2023-04-04T01:31:39;101912.25;;;0.72;74.06
63819;BME280;49970;54.976;73.248;2023-04-04T01:36:47;101917.41;;;0.81;74.30
63819;BME280;49970;54.976;73.248;2023-04-04T01:39:40;101917.34;;;0.93;74.30
63819;BME280;49970;54.976;73.248;2023-04-04T01:43:31;101908.59;;;1.05;74.16
63819;BME280;49970;54.976;73.248;2023-04-04T01:47:22;101918.91;;;1.20;73.63
63819;BME280;49970;54.976;73.248;2023-04-04T01:55:08;101921.28;;;1.53;73.08
63819;BME280;49970;54.976;73.248;2023-04-04T01:57:37;101915.19;;;1.57;73.11
63819;BME280;49970;54.976;73.248;2023-04-04T02:00:08;101918.53;;;1.69;73.09
63819;BME280;49970;54.976;73.248;2023-04-04T02:02:43;101907.13;;;1.80;72.85
63819;BME280;49970;54.976;73.248;2023-04-04T02:05:13;101913.13;;;1.91;72.34
63819;BME280;49970;54.976;73.248;2023-04-04T02:07:50;101914.72;;;2.04;71.83
63819;BME280;49970;54.976;73.248;2023-04-04T02:10:32;101923.34;;;2.15;70.72
63819;BME280;49970;54.976;73.248;2023-04-04T02:13:02;101918.81;;;2.31;70.10
63819;BME280;49970;54.976;73.248;2023-04-04T02:15:34;101917.78;;;2.44;69.47
63819;BME280;49970;54.976;73.248;2023-04-04T02:18:03;101917.63;;;2.57;68.74
63819;BME280;49970;54.976;73.248;2023-04-04T02:20:33;101917.50;;;2.66;68.86
63819;BME280;49970;54.976;73.248;2023-04-04T02:23:03;101919.19;;;2.73;69.27
63819;BME280;49970;54.976;73.248;2023-04-04T02:25:34;101916.47;;;2.79;69.06
63819;BME280;49970;54.976;73.248;2023-04-04T02:28:04;101918.09;;;2.89;69.16
63819;BME280;49970;54.976;73.248;2023-04-04T02:30:35;101917.06;;;2.99;69.07
63819;BME280;49970;54.976;73.248;2023-04-04T02:33:05;101922.16;;;3.09;69.08
63819;BME280;49970;54.976;73.248;2023-04-04T02:35:36;101919.44;;;3.18;68.14
63819;BME280;49970;54.976;73.248;2023-04-04T02:38:07;101921.84;;;3.30;68.38
63819;BME280;49970;54.976;73.248;2023-04-04T02:40:44;101914.78;;;3.37;67.87
63819;BME280;49970;54.976;73.248;2023-04-04T02:43:14;101925.88;;;3.51;66.81
63819;BME280;49970;54.976;73.248;2023-04-04T02:45:46;101930.03;;;3.66;66.90
63819;BME280;49970;54.976;73.248;2023-04-04T02:48:25;101929.75;;;3.83;66.35
63819;BME280;49970;54.976;73.248;2023-04-04T02:50:59;101934.63;;;4.03;66.50
63819;BME280;49970;54.976;73.248;2023-04-04T02:53:29;101929.91;;;4.21;66.33
63819;BME280;49970;54.976;73.248;2023-04-04T02:56:02;101926.94;;;4.40;66.30
63819;BME280;49970;54.976;73.248;2023-04-04T02:58:30;101912.53;;;4.59;65.05
63819;BME280;49970;54.976;73.248;2023-04-04T03:01:00;101926.94;;;4.83;64.92
63819;BME280;49970;54.976;73.248;2023-04-04T03:03:37;101928.31;;;4.99;63.91
63819;BME280;49970;54.976;73.248;2023-04-04T03:06:08;101920.13;;;5.15;63.89
63819;BME280;49970;54.976;73.248;2023-04-04T03:08:43;101924.03;;;5.34;63.95
63819;BME280;49970;54.976;73.248;2023-04-04T03:11:20;101909.50;;;5.55;62.84
63819;BME280;49970;54.976;73.248;2023-04-04T03:13:54;101918.72;;;5.73;62.35
63819;BME280;49970;54.976;73.248;2023-04-04T03:16:39;101906.00;;;5.89;62.07
63819;BME280;49970;54.976;73.248;2023-04-04T03:19:10;101905.72;;;6.01;61.53
63819;BME280;49970;54.976;73.248;2023-04-04T03:21:40;101912.44;;;6.13;61.00
63819;BME280;49970;54.976;73.248;2023-04-04T03:24:09;101916.59;;;6.21;61.57
63819;BME280;49970;54.976;73.248;2023-04-04T03:26:41;101911.81;;;6.36;60.84
63819;BME280;49970;54.976;73.248;2023-04-04T03:29:13;101907.16;;;6.45;61.14
63819;BME280;49970;54.976;73.248;2023-04-04T03:31:42;101914.00;;;6.51;61.05
63819;BME280;49970;54.976;73.248;2023-04-04T03:34:13;101907.56;;;6.61;60.49
63819;BME280;49970;54.976;73.248;2023-04-04T03:36:44;101913.38;;;6.72;60.33
63819;BME280;49970;54.976;73.248;2023-04-04T03:39:16;101906.88;;;6.84;60.02
63819;BME280;49970;54.976;73.248;2023-04-04T03:41:52;101910.06;;;6.95;59.74
63819;BME280;49970;54.976;73.248;2023-04-04T03:44:22;101915.97;;;7.04;59.60
63819;BME280;49970;54.976;73.248;2023-04-04T03:46:53;101913.97;;;7.12;59.65
63819;BME280;49970;54.976;73.248;2023-04-04T03:49:25;101920.75;;;7.19;59.55
63819;BME280;49970;54.976;73.248;2023-04-04T03:51:55;101922.28;;;7.26;59.12
63819;BME280;49970;54.976;73.248;2023-04-04T03:54:32;101913.50;;;7.26;59.26
63819;BME280;49970;54.976;73.248;2023-04-04T03:57:02;101921.81;;;7.41;58.54
63819;BME280;49970;54.976;73.248;2023-04-04T03:59:34;101913.53;;;7.52;58.77
63819;BME280;49970;54.976;73.248;2023-04-04T04:02:15;101919.41;;;7.60;58.20
63819;BME280;49970;54.976;73.248;2023-04-04T04:04:57;101917.44;;;7.67;58.16
63819;BME280;49970;54.976;73.248;2023-04-04T04:07:27;101918.00;;;7.77;58.18
63819;BME280;49970;54.976;73.248;2023-04-04T04:09:58;101925.56;;;7.87;58.56
63819;BME280;49970;54.976;73.248;2023-04-04T04:12:28;101926.19;;;7.94;57.69
63819;BME280;49970;54.976;73.248;2023-04-04T04:15:08;101922.44;;;8.01;57.20
63819;BME280;49970;54.976;73.248;2023-04-04T04:17:43;101924.91;;;8.06;57.78
63819;BME280;49970;54.976;73.248;2023-04-04T04:20:15;101921.16;;;8.13;57.60
63819;BME280;49970;54.976;73.248;2023-04-04T04:22:48;101923.63;;;8.17;57.55
63819;BME280;49970;54.976;73.248;2023-04-04T04:25:16;101918.88;;;8.27;56.71
63819;BME280;49970;54.976;73.248;2023-04-04T04:27:58;101922.09;;;8.37;56.45
63819;BME280;49970;54.976;73.248;2023-04-04T04:30:29;101923.53;;;8.45;56.22
63819;BME280;49970;54.976;73.248;2023-04-04T04:32:59;101921.41;;;8.55;56.34
63819;BME280;49970;54.976;73.248;2023-04-04T04:35:36;101914.13;;;8.62;57.36
63819;BME280;49970;54.976;73.248;2023-04-04T04:38:09;101925.47;;;8.65;56.70
63819;BME280;49970;54.976;73.248;2023-04-04T04:40:39;101921.66;;;8.72;56.41
63819;BME280;49970;54.976;73.248;2023-04-04T04:43:14;101922.19;;;8.82;56.31
63819;BME280;49970;54.976;73.248;2023-04-04T04:45:44;101921.81;;;8.91;55.45
63819;BME280;49970;54.976;73.248;2023-04-04T04:48:15;101897.47;;;8.83;56.88
63819;BME280;49970;54.976;73.248;2023-04-04T04:50:52;101918.81;;;9.01;56.33
63819;BME280;49970;54.976;73.248;2023-04-04T04:53:47;101915.06;;;9.06;56.31
63819;BME280;49970;54.976;73.248;2023-04-04T04:56:18;101912.97;;;9.14;55.83
63819;BME280;49970;54.976;73.248;2023-04-04T04:58:52;101910.16;;;9.19;56.27
63819;BME280;49970;54.976;73.248;2023-04-04T05:01:24;101911.53;;;9.29;55.61
63819;BME280;49970;54.976;73.248;2023-04-04T05:03:59;101912.84;;;9.39;54.49
63819;BME280;49970;54.976;73.248;2023-04-04T05:06:43;101903.88;;;9.43;54.81
63819;BME280;49970;54.976;73.248;2023-04-04T05:09:21;101907.06;;;9.52;55.02
63819;BME280;49970;54.976;73.248;2023-04-04T05:11:52;101901.59;;;9.56;54.15
63819;BME280;49970;54.976;73.248;2023-04-04T05:14:26;101903.00;;;9.65;54.55
63819;BME280;49970;54.976;73.248;2023-04-04T05:16:58;101908.81;;;9.73;55.26
63819;BME280;49970;54.976;73.248;2023-04-04T05:19:50;101904.88;;;9.83;54.70
63819;BME280;49970;54.976;73.248;2023-04-04T05:27:33;101899.59;;;10.04;53.49
63819;BME280;49970;54.976;73.248;2023-04-04T05:31:29;101891.13;;;10.16;54.53
63819;BME280;49970;54.976;73.248;2023-04-04T05:33:56;101908.34;;;10.26;54.95
63819;BME280;49970;54.976;73.248;2023-04-04T05:36:31;101904.34;;;10.36;54.79
63819;BME280;49970;54.976;73.248;2023-04-04T05:39:02;101896.00;;;10.45;55.25
63819;BME280;49970;54.976;73.248;2023-04-04T05:41:36;101899.16;;;10.54;55.18
63819;BME280;49970;54.976;73.248;2023-04-04T05:44:10;101889.06;;;10.62;54.78
63819;BME280;49970;54.976;73.248;2023-04-04T05:46:36;101892.28;;;10.68;52.94
63819;BME280;49970;54.976;73.248;2023-04-04T05:49:03;101884.63;;;10.81;52.53
63819;BME280;49970;54.976;73.248;2023-04-04T05:51:31;101883.19;;;10.93;51.97
63819;BME280;49970;54.976;73.248;2023-04-04T05:54:06;101883.78;;;11.00;51.96
63819;BME280;49970;54.976;73.248;2023-04-04T05:56:38;101877.00;;;11.11;51.54
63819;BME280;49970;54.976;73.248;2023-04-04T05:59:10;101881.22;;;11.15;52.19
63819;BME280;49970;54.976;73.248;2023-04-04T06:01:49;101878.34;;;11.20;52.04
63819;BME280;49970;54.976;73.248;2023-04-04T06:04:26;101872.88;;;11.23;52.38
63819;BME280;49970;54.976;73.248;2023-04-04T06:06:55;101877.19;;;11.26;50.86
63819;BME280;49970;54.976;73.248;2023-04-04T06:09:31;101880.47;;;11.31;51.09
63819;BME280;49970;54.976;73.248;2023-04-04T06:11:58;101866.22;;;11.33;51.88
63819;BME280;49970;54.976;73.248;2023-04-04T06:14:24;101880.88;;;11.40;49.78
63819;BME280;49970;54.976;73.248;2023-04-04T06:16:51;101878.09;;;11.43;49.22
63819;BME280;49970;54.976;73.248;2023-04-04T06:19:17;101876.00;;;11.50;49.09
63819;BME280;49970;54.976;73.248;2023-04-04T06:21:44;101880.13;;;11.56;49.19
63819;BME280;49970;54.976;73.248;2023-04-04T06:24:17;101876.00;;;11.67;48.91
63819;BME280;49970;54.976;73.248;2023-04-04T06:26:43;101873.97;;;11.72;46.92
63819;BME280;49970;54.976;73.248;2023-04-04T06:29:11;101873.63;;;11.79;49.48
63819;BME280;49970;54.976;73.248;2023-04-04T06:31:45;101875.28;;;11.81;49.62
63819;BME280;49970;54.976;73.248;2023-04-04T06:34:20;101863.81;;;11.81;49.71
63819;BME280;49970;54.976;73.248;2023-04-04T06:36:55;101871.28;;;11.91;48.03
63819;BME280;49970;54.976;73.248;2023-04-04T06:39:25;101870.94;;;11.98;48.59
63819;BME280;49970;54.976;73.248;2023-04-04T06:42:05;101875.16;;;12.02;48.22
63819;BME280;49970;54.976;73.248;2023-04-04T06:44:33;101881.06;;;12.07;48.99
63819;BME280;49970;54.976;73.248;2023-04-04T06:47:07;101862.72;;;12.02;49.50
63819;BME280;49970;54.976;73.248;2023-04-04T06:49:33;101876.38;;;12.12;48.79
63819;BME280;49970;54.976;73.248;2023-04-04T06:52:00;101877.94;;;12.16;49.42
63819;BME280;49970;54.976;73.248;2023-04-04T06:54:26;101877.63;;;12.22;48.58
63819;BME280;49970;54.976;73.248;2023-04-04T06:56:53;101872.38;;;12.20;49.68
63819;BME280;49970;54.976;73.248;2023-04-04T06:59:19;101872.06;;;12.27;49.75
63819;BME280;49970;54.976;73.248;2023-04-04T07:01:45;101881.84;;;12.26;49.97
63819;BME280;49970;54.976;73.248;2023-04-04T07:04:12;101869.50;;;12.25;48.84
63819;BME280;49970;54.976;73.248;2023-04-04T07:06:38;101869.16;;;12.31;48.97
63819;BME280;49970;54.976;73.248;2023-04-04T07:09:04;101870.88;;;12.32;49.85
63819;BME280;49970;54.976;73.248;2023-04-04T07:11:30;101867.09;;;12.36;49.12
63819;BME280;49970;54.976;73.248;2023-04-04T07:13:57;101881.19;;;12.38;49.42
63819;BME280;49970;54.976;73.248;2023-04-04T07:16:23;101865.31;;;12.37;49.89
63819;BME280;49970;54.976;73.248;2023-04-04T07:18:49;101876.88;;;12.36;50.52
63819;BME280;49970;54.976;73.248;2023-04-04T07:21:15;101872.59;;;12.33;50.35
63819;BME280;49970;54.976;73.248;2023-04-04T07:23:42;101869.94;;;12.33;52.06
63819;BME280;49970;54.976;73.248;2023-04-04T07:26:08;101873.13;;;12.40;51.79
63819;BME280;49970;54.976;73.248;2023-04-04T07:28:34;101871.91;;;12.45;48.99
63819;BME280;49970;54.976;73.248;2023-04-04T07:31:01;101871.00;;;12.46;48.60
63819;BME280;49970;54.976;73.248;2023-04-04T07:33:28;101871.50;;;12.53;47.01
63819;BME280;49970;54.976;73.248;2023-04-04T07:35:54;101871.34;;;12.56;47.33
63819;BME280;49970;54.976;73.248;2023-04-04T07:38:20;101863.28;;;12.58;47.18
63819;BME280;49970;54.976;73.248;2023-04-04T07:40:49;101867.84;;;12.56;45.33
63819;BME280;49970;54.976;73.248;2023-04-04T07:43:16;101869.63;;;12.55;44.99
63819;BME280;49970;54.976;73.248;2023-04-04T07:45:42;101868.00;;;12.53;43.76
63819;BME280;49970;54.976;73.248;2023-04-04T07:48:08;101871.50;;;12.53;44.46
63819;BME280;49970;54.976;73.248;2023-04-04T07:50:35;101860.97;;;12.52;44.80
63819;BME280;49970;54.976;73.248;2023-04-04T07:53:01;101860.38;;;12.46;44.84
63819;BME280;49970;54.976;73.248;2023-04-04T07:55:27;101873.91;;;12.42;45.59
63819;BME280;49970;54.976;73.248;2023-04-04T07:57:53;101871.41;;;12.39;43.05
63819;BME280;49970;54.976;73.248;2023-04-04T08:00:20;101857.41;;;12.35;43.38
63819;BME280;49970;54.976;73.248;2023-04-04T08:02:54;101866.00;;;12.40;43.60
63819;BME280;49970;54.976;73.248;2023-04-04T08:05:21;101860.94;;;12.36;43.46
63819;BME280;49970;54.976;73.248;2023-04-04T08:07:47;101865.41;;;12.35;44.48
63819;BME280;49970;54.976;73.248;2023-04-04T08:10:13;101868.91;;;12.36;44.51
63819;BME280;49970;54.976;73.248;2023-04-04T08:12:42;101856.56;;;12.35;43.63
63819;BME280;49970;54.976;73.248;2023-04-04T08:15:19;101861.97;;;12.33;44.38
63819;BME280;49970;54.976;73.248;2023-04-04T08:17:55;101854.84;;;12.34;43.05
63819;BME280;49970;54.976;73.248;2023-04-04T08:20:27;101865.50;;;12.34;43.39
63819;BME280;49970;54.976;73.248;2023-04-04T08:22:54;101861.19;;;12.31;43.41
63819;BME280;49970;54.976;73.248;2023-04-04T08:25:20;101865.75;;;12.29;44.27
63819;BME280;49970;54.976;73.248;2023-04-04T08:27:46;101862.28;;;12.27;43.61
63819;BME280;49970;54.976;73.248;2023-04-04T08:30:23;101872.91;;;12.27;44.21
63819;BME280;49970;54.976;73.248;2023-04-04T08:32:49;101869.50;;;12.25;42.75
63819;BME280;49970;54.976;73.248;2023-04-04T08:35:15;101865.03;;;12.26;42.02
63819;BME280;49970;54.976;73.248;2023-04-04T08:37:45;101863.16;;;12.28;43.62
63819;BME280;49970;54.976;73.248;2023-04-04T08:40:12;101864.09;;;12.27;42.72
63819;BME280;49970;54.976;73.248;2023-04-04T08:42:50;101866.66;;;12.28;41.66
63819;BME280;49970;54.976;73.248;2023-04-04T08:45:17;101862.28;;;12.27;42.37
63819;BME280;49970;54.976;73.248;2023-04-04T08:47:45;101856.13;;;12.27;42.49
63819;BME280;49970;54.976;73.248;2023-04-04T08:50:11;101851.91;;;12.23;43.67
63819;BME280;49970;54.976;73.248;2023-04-04T08:52:38;101857.06;;;12.26;43.42
63819;BME280;49970;54.976;73.248;2023-04-04T08:55:05;101861.75;;;12.20;44.10
63819;BME280;49970;54.976;73.248;2023-04-04T08:57:32;101861.38;;;12.11;40.98
63819;BME280;49970;54.976;73.248;2023-04-04T08:59:58;101862.47;;;12.07;43.67
63819;BME280;49970;54.976;73.248;2023-04-04T09:02:33;101859.06;;;12.05;43.71
63819;BME280;49970;54.976;73.248;2023-04-04T09:05:02;101849.53;;;12.01;44.46
63819;BME280;49970;54.976;73.248;2023-04-04T09:07:28;101847.75;;;12.01;45.78
63819;BME280;49970;54.976;73.248;2023-04-04T09:10:15;101860.16;;;12.01;47.99
63819;BME280;49970;54.976;73.248;2023-04-04T09:13:05;101846.09;;;11.99;50.43
63819;BME280;49970;54.976;73.248;2023-04-04T09:15:34;101846.94;;;11.99;51.75
63819;BME280;49970;54.976;73.248;2023-04-04T09:18:05;101846.09;;;11.99;51.99
63819;BME280;49970;54.976;73.248;2023-04-04T09:20:34;101847.91;;;11.98;50.72
63819;BME280;49970;54.976;73.248;2023-04-04T09:23:08;101846.34;;;11.94;50.64
63819;BME280;49970;54.976;73.248;2023-04-04T09:25:53;101834.31;;;11.87;51.11
63819;BME280;49970;54.976;73.248;2023-04-04T09:28:24;101831.66;;;11.87;47.52
63819;BME280;49970;54.976;73.248;2023-04-04T09:30:53;101825.50;;;11.86;48.44
63819;BME280;49970;54.976;73.248;2023-04-04T09:33:24;101832.44;;;11.89;48.93
63819;BME280;49970;54.976;73.248;2023-04-04T09:36:02;101835.97;;;11.89;49.17
63819;BME280;49970;54.976;73.248;2023-04-04T09:38:31;101836.97;;;11.87;48.30
63819;BME280;49970;54.976;73.248;2023-04-04T09:40:59;101839.81;;;11.84;48.95
63819;BME280;49970;54.976;73.248;2023-04-04T09:43:29;101841.78;;;11.79;48.86
63819;BME280;49970;54.976;73.248;2023-04-04T09:45:59;101844.44;;;11.79;48.97
63819;BME280;49970;54.976;73.248;2023-04-04T09:48:31;101838.59;;;11.72;49.75
63819;BME280;49970;54.976;73.248;2023-04-04T09:51:05;101845.00;;;11.68;51.26
63819;BME280;49970;54.976;73.248;2023-04-04T09:53:35;101840.88;;;11.62;51.89
63819;BME280;49970;54.976;73.248;2023-04-04T09:56:08;101833.06;;;11.59;52.70
63819;BME280;49970;54.976;73.248;2023-04-04T09:58:37;101842.03;;;11.57;51.30
63819;BME280;49970;54.976;73.248;2023-04-04T10:01:10;101844.53;;;11.60;52.44
63819;BME280;49970;54.976;73.248;2023-04-04T10:03:38;101845.38;;;11.60;52.79
63819;BME280;49970;54.976;73.248;2023-04-04T10:06:09;101841.88;;;11.60;53.17
63819;BME280;49970;54.976;73.248;2023-04-04T10:08:42;101844.53;;;11.60;52.61
63819;BME280;49970;54.976;73.248;2023-04-04T10:11:12;101841.97;;;11.58;54.49
63819;BME280;49970;54.976;73.248;2023-04-04T10:13:44;101849.13;;;11.56;54.01
63819;BME280;49970;54.976;73.248;2023-04-04T10:16:15;101844.84;;;11.54;54.20
63819;BME280;49970;54.976;73.248;2023-04-04T10:18:45;101838.66;;;11.53;54.25
63819;BME280;49970;54.976;73.248;2023-04-04T10:21:17;101843.13;;;11.53;55.23
63819;BME280;49970;54.976;73.248;2023-04-04T10:23:48;101846.63;;;11.53;55.02
63819;BME280;49970;54.976;73.248;2023-04-04T10:26:20;101848.44;;;11.53;54.45
63819;BME280;49970;54.976;73.248;2023-04-04T10:28:53;101846.81;;;11.50;54.14
63819;BME280;49970;54.976;73.248;2023-04-04T10:31:37;101845.06;;;11.49;53.44
63819;BME280;49970;54.976;73.248;2023-04-04T10:34:26;101842.50;;;11.47;53.15
63819;BME280;49970;54.976;73.248;2023-04-04T10:37:14;101835.47;;;11.46;53.18
63819;BME280;49970;54.976;73.248;2023-04-04T10:40:04;101846.09;;;11.46;53.33
63819;BME280;49970;54.976;73.248;2023-04-04T10:42:38;101840.78;;;11.46;52.39
63819;BME280;49970;54.976;73.248;2023-04-04T10:45:09;101834.78;;;11.43;51.78
63819;BME280;49970;54.976;73.248;2023-04-04T10:47:41;101838.50;;;11.39;51.84
63819;BME280;49970;54.976;73.248;2023-04-04T10:50:10;101847.47;;;11.36;51.95
63819;BME280;49970;54.976;73.248;2023-04-04T10:52:43;101845.75;;;11.35;51.07
63819;BME280;49970;54.976;73.248;2023-04-04T10:55:13;101848.41;;;11.35;50.82
63819;BME280;49970;54.976;73.248;2023-04-04T10:57:48;101852.97;;;11.33;50.25
63819;BME280;49970;54.976;73.248;2023-04-04T11:00:20;101844.09;;;11.33;50.06
63819;BME280;49970;54.976;73.248;2023-04-04T11:10:34;101844.06;;;11.34;49.86
63819;BME280;49970;54.976;73.248;2023-04-04T11:13:09;101837.03;;;11.33;50.01
63819;BME280;49970;54.976;73.248;2023-04-04T11:16:00;101846.56;;;11.37;48.82
63819;BME280;49970;54.976;73.248;2023-04-04T11:21:03;101828.91;;;11.36;48.91
63819;BME280;49970;54.976;73.248;2023-04-04T11:29:02;101836.88;;;11.36;49.29
63819;BME280;49970;54.976;73.248;2023-04-04T11:31:38;101827.19;;;11.35;49.15
63819;BME280;49970;54.976;73.248;2023-04-04T11:34:11;101836.09;;;11.34;49.01
63819;BME280;49970;54.976;73.248;2023-04-04T11:41:55;101826.81;;;11.26;48.85
63819;BME280;49970;54.976;73.248;2023-04-04T11:44:27;101831.31;;;11.23;48.71
63819;BME280;49970;54.976;73.248;2023-04-04T11:50:39;101821.78;;;11.19;48.95
63819;BME280;49970;54.976;73.248;2023-04-04T11:54:14;101830.78;;;11.17;49.20
63819;BME280;49970;54.976;73.248;2023-04-04T11:56:41;101831.69;;;11.16;49.64
63819;BME280;49970;54.976;73.248;2023-04-04T11:59:16;101835.28;;;11.15;50.41
63819;BME280;49970;54.976;73.248;2023-04-04T12:01:43;101835.38;;;11.13;49.82
63819;BME280;49970;54.976;73.248;2023-04-04T12:04:10;101833.66;;;11.12;49.96
63819;BME280;49970;54.976;73.248;2023-04-04T12:06:37;101827.56;;;11.10;50.29
63819;BME280;49970;54.976;73.248;2023-04-04T12:09:04;101841.66;;;11.11;50.26
63819;BME280;49970;54.976;73.248;2023-04-04T12:11:36;101830.28;;;11.09;50.06
63819;BME280;49970;54.976;73.248;2023-04-04T12:14:03;101833.16;;;11.04;50.18
63819;BME280;49970;54.976;73.248;2023-04-04T12:16:29;101831.44;;;11.03;49.52
63819;BME280;49970;54.976;73.248;2023-04-04T12:19:00;101827.91;;;11.03;49.82
63819;BME280;49970;54.976;73.248;2023-04-04T12:21:30;101831.59;;;11.00;50.13
63819;BME280;49970;54.976;73.248;2023-04-04T12:23:58;101835.16;;;10.99;50.24
63819;BME280;49970;54.976;73.248;2023-04-04T12:26:24;101837.13;;;10.95;49.28
63819;BME280;49970;54.976;73.248;2023-04-04T12:29:00;101837.97;;;10.96;49.73
63819;BME280;49970;54.976;73.248;2023-04-04T12:31:27;101832.72;;;10.94;49.96
63819;BME280;49970;54.976;73.248;2023-04-04T12:34:00;101834.63;;;10.92;50.88
63819;BME280;49970;54.976;73.248;2023-04-04T12:36:29;101831.25;;;10.89;50.96
63819;BME280;49970;54.976;73.248;2023-04-04T12:39:08;101833.03;;;10.88;51.23
63819;BME280;49970;54.976;73.248;2023-04-04T12:46:59;101847.59;;;10.80;51.80
63819;BME280;49970;54.976;73.248;2023-04-04T12:49:49;101844.31;;;10.75;52.49
63819;BME280;49970;54.976;73.248;2023-04-04T12:53:50;101847.31;;;10.67;52.93
63819;BME280;49970;54.976;73.248;2023-04-04T12:57:40;101843.94;;;10.63;53.50
63819;BME280;49970;54.976;73.248;2023-04-04T13:01:56;101841.66;;;10.56;53.98
63819;BME280;49970;54.976;73.248;2023-04-04T13:05:27;101843.66;;;10.51;54.60
63819;BME280;49970;54.976;73.248;2023-04-04T13:08:07;101835.94;;;10.46;54.91
63819;BME280;49970;54.976;73.248;2023-04-04T13:11:00;101837.84;;;10.42;54.71
63819;BME280;49970;54.976;73.248;2023-04-04T13:13:38;101844.16;;;10.40;55.70
63819;BME280;49970;54.976;73.248;2023-04-04T13:16:09;101837.25;;;10.36;55.72
63819;BME280;49970;54.976;73.248;2023-04-04T13:18:44;101843.59;;;10.33;55.75
63819;BME280;49970;54.976;73.248;2023-04-04T13:21:13;101841.06;;;10.30;55.95
63819;BME280;49970;54.976;73.248;2023-04-04T13:23:40;101833.19;;;10.29;55.93
63819;BME280;49970;54.976;73.248;2023-04-04T13:26:08;101830.69;;;10.24;56.43
63819;BME280;49970;54.976;73.248;2023-04-04T13:28:34;101825.56;;;10.21;55.93
63819;BME280;49970;54.976;73.248;2023-04-04T13:31:10;101826.69;;;10.15;55.15
63819;BME280;49970;54.976;73.248;2023-04-04T13:33:38;101828.69;;;10.10;56.03
63819;BME280;49970;54.976;73.248;2023-04-04T13:36:05;101833.41;;;10.04;56.43
63819;BME280;49970;54.976;73.248;2023-04-04T13:38:31;101839.91;;;9.96;56.71
63819;BME280;49970;54.976;73.248;2023-04-04T13:40:58;101834.06;;;9.88;57.92
63819;BME280;49970;54.976;73.248;2023-04-04T13:43:29;101839.63;;;9.82;58.64
63819;BME280;49970;54.976;73.248;2023-04-04T13:45:55;101837.34;;;9.75;59.02
63819;BME280;49970;54.976;73.248;2023-04-04T13:48:22;101832.41;;;9.65;60.56
63819;BME280;49970;54.976;73.248;2023-04-04T13:50:48;101833.75;;;9.55;59.93
63819;BME280;49970;54.976;73.248;2023-04-04T13:53:23;101835.06;;;9.45;60.75
63819;BME280;49970;54.976;73.248;2023-04-04T13:55:49;101828.50;;;9.33;60.61
63819;BME280;49970;54.976;73.248;2023-04-04T13:58:16;101824.31;;;9.28;60.72